createdAt,value
2022-08-07T00:01:44.686Z,99978.59
2022-08-07T00:04:15.507Z,99974.59
2022-08-07T00:06:51.428Z,99973.28
2022-08-07T00:09:22.831Z,99974.97
2022-08-07T00:11:55.928Z,99972.09
2022-08-07T00:14:29.974Z,99955.09
2022-08-07T00:16:59.804Z,99961.66
2022-08-07T00:19:34.117Z,99957.56
2022-08-07T00:22:13.686Z,99958.13
2022-08-07T00:24:52.106Z,99957.69
2022-08-07T00:27:18.883Z,99962.13
2022-08-07T00:29:49.895Z,99952.91
2022-08-07T00:32:17.057Z,99955.56
2022-08-07T00:34:46.970Z,99962.78
2022-08-07T00:37:18.569Z,99957.00
2022-08-07T00:39:54.546Z,99965.63
2022-08-07T00:42:29.126Z,99968.81
2022-08-07T00:44:56.332Z,99967.63
2022-08-07T00:48:07.978Z,99969.94
2022-08-07T00:50:19.992Z,99980.94
2022-08-07T00:52:57.080Z,99971.59
2022-08-07T00:56:00.206Z,99971.91
2022-08-07T00:58:12.198Z,99964.72
2022-08-07T01:00:39.125Z,99971.59
2022-08-07T01:03:25.455Z,99969.03
2022-08-07T01:06:09.549Z,99964.84
2022-08-07T01:08:51.429Z,99961.41
2022-08-07T01:12:04.641Z,99953.41
2022-08-07T01:14:08.840Z,99957.94
2022-08-07T01:16:37.206Z,99956.19
2022-08-07T01:19:10.815Z,99946.97
2022-08-07T01:21:48.159Z,99954.50
2022-08-07T01:24:21.139Z,99953.41
2022-08-07T01:26:51.688Z,99952.97
2022-08-07T01:29:24.226Z,99955.84
2022-08-07T01:31:59.535Z,99957.38
2022-08-07T01:34:32.709Z,99957.13
2022-08-07T01:37:09.873Z,99960.56
2022-08-07T01:39:40.873Z,99962.13
2022-08-07T01:42:58.653Z,99969.31
2022-08-07T01:45:37.309Z,99969.06
2022-08-07T01:48:20.459Z,99965.19
2022-08-07T01:51:24.362Z,99962.84
2022-08-07T01:54:11.714Z,99952.69
2022-08-07T01:56:56.628Z,99959.44
2022-08-07T02:00:12.900Z,99957.28
2022-08-07T02:03:11.699Z,99963.91
2022-08-07T02:06:01.391Z,99961.59
2022-08-07T02:08:36.530Z,99958.31
2022-08-07T02:11:05.269Z,99949.13
2022-08-07T02:13:57.894Z,99955.66
2022-08-07T02:16:29.938Z,99950.34
2022-08-07T02:20:07.508Z,99950.34
2022-08-07T02:21:57.772Z,99957.25
2022-08-07T02:24:30.079Z,99955.66
2022-08-07T02:27:01.210Z,99942.25
2022-08-07T02:29:32.115Z,99949.00
2022-08-07T02:32:04.532Z,99950.56
2022-08-07T02:34:32.647Z,99958.19
2022-08-07T02:37:08.125Z,99950.56
2022-08-07T02:39:42.889Z,99953.22
2022-08-07T02:42:17.693Z,99947.91
2022-08-07T02:44:51.884Z,99958.19
2022-08-07T02:47:24.737Z,99937.56
2022-08-07T02:50:00.208Z,99943.00
2022-08-07T02:52:38.302Z,99944.59
2022-08-07T02:55:28.243Z,99945.03
2022-08-07T02:58:10.843Z,99933.19
2022-08-07T03:00:46.890Z,99924.75
2022-08-07T03:03:21.170Z,99921.75
2022-08-07T03:05:54.658Z,99926.16
2022-08-07T03:08:26.834Z,99917.88
2022-08-07T03:11:01.470Z,99916.63
2022-08-07T03:13:38.999Z,99921.19
2022-08-07T03:16:18.216Z,99922.59
2022-08-07T03:18:52.440Z,99915.72
2022-08-07T03:21:21.180Z,99915.09
2022-08-07T03:24:20.966Z,99908.66
2022-08-07T03:26:50.883Z,99905.34
2022-08-07T03:29:27.602Z,99903.47
2022-08-07T03:31:56.132Z,99909.56
2022-08-07T03:34:27.550Z,99912.22
2022-08-07T03:37:12.349Z,99909.56
2022-08-07T03:40:00.045Z,99901.16
2022-08-07T03:42:34.521Z,99906.91
2022-08-07T03:45:06.388Z,99903.13
2022-08-07T03:47:48.038Z,99902.34
2022-08-07T03:50:23.113Z,99904.72
2022-08-07T03:52:54.046Z,99907.38
2022-08-07T03:55:22.393Z,99908.00
2022-08-07T03:58:35.389Z,99908.13
2022-08-07T04:00:46.559Z,99906.38
2022-08-07T04:03:21.186Z,99914.81
2022-08-07T04:05:50.847Z,99913.69
2022-08-07T04:08:21.908Z,99919.03
2022-08-07T04:10:54.460Z,99925.38
2022-08-07T04:14:14.030Z,99917.28
2022-08-07T04:16:32.258Z,99925.13
2022-08-07T04:19:12.599Z,99922.47
2022-08-07T04:21:59.579Z,99928.91
2022-08-07T04:24:39.044Z,99921.22
2022-08-07T04:27:20.311Z,99927.66
2022-08-07T04:30:02.360Z,99930.06
2022-08-07T04:32:44.917Z,99930.53
2022-08-07T04:35:17.111Z,99936.97
2022-08-07T04:38:01.155Z,99930.28
2022-08-07T04:40:32.242Z,99934.34
2022-08-07T04:43:02.085Z,99936.84
2022-08-07T04:46:01.276Z,99937.41
2022-08-07T04:48:37.401Z,99927.88
2022-08-07T04:51:11.165Z,99932.44
2022-08-07T04:54:05.746Z,99936.97
2022-08-07T04:58:23.668Z,99933.28
2022-08-07T05:00:10.746Z,99933.06
2022-08-07T05:03:38.645Z,99936.63
2022-08-07T05:05:59.717Z,99934.31
2022-08-07T05:09:00.762Z,99932.09
2022-08-07T05:11:57.639Z,99934.56
2022-08-07T05:14:52.590Z,99933.81
2022-08-07T05:17:51.522Z,99932.22
2022-08-07T05:20:22.655Z,99938.50
2022-08-07T05:22:52.993Z,99945.84
2022-08-07T05:25:25.546Z,99936.47
2022-08-07T05:28:20.492Z,99943.34
2022-08-07T05:30:54.406Z,99941.00
2022-08-07T05:33:23.580Z,99943.34
2022-08-07T05:35:53.361Z,99951.16
2022-08-07T05:39:01.265Z,99951.34
2022-08-07T05:41:16.913Z,99948.38
2022-08-07T05:44:12.023Z,99955.38
2022-08-07T05:46:47.802Z,99944.25
2022-08-07T05:49:23.190Z,99950.81
2022-08-07T05:51:51.692Z,99954.25
2022-08-07T05:54:31.273Z,99950.03
2022-08-07T05:57:12.942Z,99954.72
2022-08-07T05:59:57.866Z,99956.06
2022-08-07T06:02:31.781Z,99955.88
2022-08-07T06:05:07.242Z,99955.88
2022-08-07T06:08:14.847Z,99959.44
2022-08-07T06:10:28.664Z,99955.03
2022-08-07T06:12:56.502Z,99955.16
2022-08-07T06:15:39.068Z,99956.69
2022-08-07T06:18:13.940Z,99957.75
2022-08-07T06:20:49.863Z,99948.31
2022-08-07T06:24:36.799Z,99961.75
2022-08-07T06:26:27.484Z,99969.06
2022-08-07T06:28:57.926Z,99961.69
2022-08-07T06:31:46.995Z,99960.03
2022-08-07T06:34:16.159Z,99962.19
2022-08-07T06:36:47.052Z,99953.19
2022-08-07T06:40:16.130Z,99953.91
2022-08-07T06:42:12.019Z,99953.44
2022-08-07T06:55:34.102Z,99952.91
2022-08-07T06:58:02.960Z,99966.09
2022-08-07T07:00:38.812Z,99960.38
2022-08-07T07:03:13.966Z,99957.94
2022-08-07T07:06:02.926Z,99957.72
2022-08-07T07:08:34.870Z,99955.72
2022-08-07T07:11:13.911Z,99950.91
2022-08-07T07:14:01.305Z,99955.72
2022-08-07T07:16:34.022Z,99948.66
2022-08-07T07:19:54.538Z,99944.75
2022-08-07T07:22:11.660Z,99949.06
2022-08-07T07:24:56.920Z,99951.75
2022-08-07T07:27:35.542Z,99951.41
2022-08-07T07:30:32.739Z,99954.50
2022-08-07T07:33:07.805Z,99950.41
2022-08-07T07:35:44.126Z,99950.53
2022-08-07T07:38:24.424Z,99941.88
2022-08-07T07:40:57.608Z,99941.09
2022-08-07T07:44:13.714Z,99939.09
2022-08-07T07:46:37.922Z,99936.13
2022-08-07T07:50:15.944Z,99932.00
2022-08-07T07:51:58.232Z,99937.66
2022-08-07T07:54:28.153Z,99937.00
2022-08-07T07:56:57.637Z,99933.53
2022-08-07T07:59:52.748Z,99932.59
2022-08-07T08:02:22.586Z,99927.38
2022-08-07T08:05:05.516Z,99935.38
2022-08-07T08:07:59.684Z,99934.81
2022-08-07T08:10:38.130Z,99935.06
2022-08-07T08:13:10.513Z,99930.50
2022-08-07T08:15:58.835Z,99934.91
2022-08-07T08:18:28.874Z,99934.34
2022-08-07T08:20:59.756Z,99947.25
2022-08-07T08:23:30.285Z,99939.72
2022-08-07T08:26:06.875Z,99932.81
2022-08-07T08:28:43.466Z,99936.47
2022-08-07T08:31:30.211Z,99937.03
2022-08-07T08:34:06.538Z,99929.13
2022-08-07T08:36:37.280Z,99931.28
2022-08-07T08:39:09.055Z,99943.16
2022-08-07T08:41:58.584Z,99943.94
2022-08-07T08:44:44.708Z,99941.28
2022-08-07T08:47:52.890Z,99925.16
2022-08-07T08:50:38.845Z,99929.03
2022-08-07T08:53:19.354Z,99931.28
2022-08-07T08:55:58.634Z,99934.91
2022-08-07T08:59:02.322Z,99937.56
2022-08-07T09:02:10.858Z,99929.38
2022-08-07T09:05:23.628Z,99926.03
2022-08-07T09:07:59.946Z,99923.13
2022-08-07T09:10:39.196Z,99930.13
2022-08-07T09:13:19.474Z,99928.47
2022-08-07T09:16:21.841Z,99932.66
2022-08-07T09:19:07.302Z,99926.41
2022-08-07T09:22:37.050Z,99921.06
2022-08-07T09:25:40.477Z,99920.78
2022-08-07T09:30:02.170Z,99919.00
2022-08-07T09:31:25.369Z,99918.34
2022-08-07T09:34:09.879Z,99918.19
2022-08-07T09:36:56.009Z,99912.56
2022-08-07T09:39:54.115Z,99908.91
2022-08-07T09:42:43.252Z,99908.63
2022-08-07T09:47:42.298Z,99899.84
2022-08-07T09:48:56.222Z,99903.75
2022-08-07T09:52:15.800Z,99903.50
2022-08-07T09:54:28.359Z,99908.06
2022-08-07T09:57:14.319Z,99907.38
2022-08-07T09:59:46.449Z,99902.13
2022-08-07T10:02:55.501Z,99894.44
2022-08-07T10:06:00.807Z,99886.97
2022-08-07T10:09:10.324Z,99888.91
2022-08-07T10:12:18.089Z,99880.13
2022-08-07T10:15:00.415Z,99882.16
2022-08-07T10:17:30.959Z,99878.94
2022-08-07T10:20:37.416Z,99873.94
2022-08-07T10:24:05.921Z,99872.09
2022-08-07T10:26:26.055Z,99866.56
2022-08-07T10:29:31.401Z,99861.63
2022-08-07T10:32:37.029Z,99867.41
2022-08-07T10:35:53.623Z,99851.75
2022-08-07T10:38:41.181Z,99852.00
2022-08-07T10:41:51.815Z,99859.53
2022-08-07T10:44:33.801Z,99845.81
2022-08-07T10:47:48.801Z,99840.34
2022-08-07T10:50:25.934Z,99832.16
2022-08-07T10:53:28.615Z,99831.84
2022-08-07T10:56:40.722Z,99837.75
2022-08-07T10:59:24.747Z,99827.47
2022-08-07T11:02:33.627Z,99825.56
2022-08-07T11:05:19.178Z,99815.28
2022-08-07T11:08:07.074Z,99814.78
2022-08-07T11:10:52.391Z,99807.84
2022-08-07T11:14:43.878Z,99814.50
2022-08-07T11:16:55.722Z,99806.56
2022-08-07T11:19:49.097Z,99806.75
2022-08-07T11:22:45.645Z,99801.56
2022-08-07T11:25:28.188Z,99805.78
2022-08-07T11:28:07.063Z,99801.09
2022-08-07T11:30:59.639Z,99797.19
2022-08-07T11:33:58.663Z,99803.69
2022-08-07T11:36:36.559Z,99795.66
2022-08-07T11:39:23.253Z,99794.56
2022-08-07T11:42:16.893Z,99786.13
2022-08-07T11:45:07.221Z,99791.16
2022-08-07T11:47:56.280Z,99787.38
2022-08-07T11:51:08.921Z,99788.56
2022-08-07T11:54:00.643Z,99779.00
2022-08-07T11:56:36.522Z,99779.81
2022-08-07T12:00:08.158Z,99771.03
2022-08-07T12:02:52.460Z,99775.25
2022-08-07T12:05:48.913Z,99765.72
2022-08-07T12:09:03.076Z,99763.03
2022-08-07T12:11:43.478Z,99769.94
2022-08-07T12:14:35.205Z,99758.91
2022-08-07T12:17:19.854Z,99759.25
2022-08-07T12:20:10.321Z,99761.59
2022-08-07T12:24:05.120Z,99755.91
2022-08-07T12:26:30.064Z,99756.47
2022-08-07T12:29:21.090Z,99759.63
2022-08-07T12:32:23.710Z,99760.34
2022-08-07T12:34:56.261Z,99757.25
2022-08-07T12:37:28.482Z,99754.19
2022-08-07T12:40:44.142Z,99748.47
2022-08-07T12:43:09.946Z,99753.97
2022-08-07T12:45:54.573Z,99754.34
2022-08-07T12:48:41.070Z,99748.19
2022-08-07T12:51:24.001Z,99751.34
2022-08-07T12:54:23.936Z,99741.41
2022-08-07T12:56:55.222Z,99746.47
2022-08-07T12:59:33.291Z,99746.16
2022-08-07T13:02:42.468Z,99740.75
2022-08-07T13:06:04.429Z,99741.66
2022-08-07T13:08:56.222Z,99736.25
2022-08-07T13:12:03.096Z,99740.91
2022-08-07T13:14:59.015Z,99730.28
2022-08-07T13:17:53.155Z,99727.19
2022-08-07T13:20:43.155Z,99735.31
2022-08-07T13:24:02.258Z,99731.97
2022-08-07T13:26:15.754Z,99725.53
2022-08-07T13:29:16.858Z,99720.63
2022-08-07T13:32:32.234Z,99724.88
2022-08-07T13:35:08.806Z,99725.72
2022-08-07T13:37:55.434Z,99713.00
2022-08-07T13:40:41.768Z,99725.34
2022-08-07T13:43:15.052Z,99715.34
2022-08-07T13:46:12.490Z,99705.06
2022-08-07T13:48:58.361Z,99704.00
2022-08-07T13:51:27.548Z,99700.19
2022-08-07T13:54:16.436Z,99687.84
2022-08-07T13:56:55.785Z,99697.50
2022-08-07T13:59:27.493Z,99686.75
2022-08-07T14:02:04.550Z,99687.16
2022-08-07T14:04:36.066Z,99686.34
2022-08-07T14:07:09.721Z,99683.28
2022-08-07T14:10:14.967Z,99676.03
2022-08-07T14:12:54.749Z,99680.25
2022-08-07T14:15:39.567Z,99676.03
2022-08-07T14:18:28.674Z,99669.50
2022-08-07T14:21:21.170Z,99669.88
2022-08-07T14:24:04.010Z,99662.59
2022-08-07T14:26:53.549Z,99663.41
2022-08-07T14:30:09.587Z,99664.94
2022-08-07T14:32:16.240Z,99657.25
2022-08-07T14:34:48.811Z,99664.53
2022-08-07T14:37:19.086Z,99658.03
2022-08-07T14:40:16.566Z,99661.09
2022-08-07T14:43:55.594Z,99652.28
2022-08-07T14:45:47.032Z,99656.16
2022-08-07T14:48:27.290Z,99651.16
2022-08-07T14:50:57.041Z,99643.88
2022-08-07T14:54:05.512Z,99640.78
2022-08-07T14:56:15.815Z,99650.34
2022-08-07T14:59:03.843Z,99647.25
2022-08-07T15:01:42.677Z,99645.34
2022-08-07T15:04:19.175Z,99651.09
2022-08-07T15:06:48.111Z,99650.72
2022-08-07T15:09:47.078Z,99645.69
2022-08-07T15:12:10.940Z,99647.22
2022-08-07T15:14:59.553Z,99639.94
2022-08-07T15:17:55.210Z,99645.66
2022-08-07T15:20:32.925Z,99640.66
2022-08-07T15:25:55.943Z,99642.91
2022-08-07T15:28:35.138Z,99644.44
2022-08-07T15:31:12.191Z,99638.31
2022-08-07T15:33:42.543Z,99640.19
2022-08-07T15:36:10.601Z,99644.78
2022-08-07T15:44:21.161Z,99647.09
2022-08-07T15:47:09.118Z,99640.59
2022-08-07T15:50:05.788Z,99639.78
2022-08-07T15:52:37.770Z,99646.66
2022-08-07T15:55:08.807Z,99648.94
2022-08-07T15:57:39.689Z,99644.69
2022-08-07T16:00:31.259Z,99646.22
2022-08-07T16:03:20.830Z,99646.94
2022-08-07T16:06:05.679Z,99648.09
2022-08-07T16:08:38.544Z,99643.09
2022-08-07T16:11:28.734Z,99645.03
2022-08-07T16:14:12.729Z,99646.91
2022-08-07T16:17:02.534Z,99639.63
2022-08-07T16:20:00.554Z,99645.34
2022-08-07T16:22:38.846Z,99642.66
2022-08-07T16:25:53.046Z,99647.63
2022-08-07T16:30:05.419Z,99645.69
2022-08-07T16:31:50.990Z,99644.53
2022-08-07T16:34:48.298Z,99646.00
2022-08-07T16:38:03.035Z,99656.78
2022-08-07T16:40:57.355Z,99652.16
2022-08-07T16:44:06.157Z,99651.75
2022-08-07T16:47:07.621Z,99652.81
2022-08-07T16:50:29.310Z,99644.38
2022-08-07T16:52:55.729Z,99649.72
2022-08-07T16:55:47.671Z,99648.50
2022-08-07T16:58:33.687Z,99648.19
2022-08-07T17:01:22.864Z,99651.63
2022-08-07T17:04:12.254Z,99638.91
2022-08-07T17:07:09.141Z,99643.13
2022-08-07T17:10:07.969Z,99635.47
2022-08-07T17:12:56.680Z,99637.88
2022-08-07T17:16:09.703Z,99644.06
2022-08-07T17:19:05.014Z,99655.00
2022-08-07T17:21:50.664Z,99656.56
2022-08-07T17:24:42.854Z,99667.31
2022-08-07T17:27:32.555Z,99666.25
2022-08-07T17:30:14.765Z,99669.00
2022-08-07T17:34:15.314Z,99671.84
2022-08-07T17:36:20.765Z,99661.16
2022-08-07T17:39:10.173Z,99671.09
2022-08-07T17:42:01.961Z,99663.03
2022-08-07T17:44:42.728Z,99661.03
2022-08-07T17:47:38.104Z,99668.56
2022-08-07T17:50:18.996Z,99681.88
2022-08-07T17:53:55.647Z,99681.53
2022-08-07T17:56:28.476Z,99687.06
2022-08-07T17:58:56.872Z,99680.91
2022-08-07T18:01:44.787Z,99681.13
2022-08-07T18:04:37.511Z,99697.13
2022-08-07T18:07:20.219Z,99699.41
2022-08-07T18:10:06.110Z,99681.63
2022-08-07T18:13:00.180Z,99689.59
2022-08-07T18:15:55.715Z,99683.28
2022-08-07T18:18:46.806Z,99694.94
2022-08-07T18:21:38.269Z,99699.47
2022-08-07T18:24:34.344Z,99703.88
2022-08-07T18:27:24.061Z,99705.69
2022-08-07T18:30:32.490Z,99715.34
2022-08-07T18:33:15.212Z,99722.56
2022-08-07T18:36:12.987Z,99719.84
2022-08-07T18:39:01.290Z,99718.00
2022-08-07T18:41:54.993Z,99719.69
2022-08-07T18:45:43.007Z,99722.63
2022-08-07T18:47:44.862Z,99713.84
2022-08-07T18:50:39.589Z,99722.53
2022-08-07T18:53:14.610Z,99723.03
2022-08-07T18:56:01.680Z,99730.47
2022-08-07T18:58:51.434Z,99730.47
2022-08-07T19:02:18.365Z,99730.75
2022-08-07T19:05:15.153Z,99743.19
2022-08-07T19:07:56.985Z,99744.38
2022-08-07T19:10:31.934Z,99751.22
2022-08-07T19:13:43.688Z,99742.72
2022-08-07T19:17:04.141Z,99741.53
2022-08-07T19:19:16.722Z,99752.09
2022-08-07T19:21:56.257Z,99753.31
2022-08-07T19:24:43.320Z,99749.00
2022-08-07T19:28:29.854Z,99750.78
2022-08-07T19:31:00.549Z,99748.06
2022-08-07T19:32:56.052Z,99756.09
2022-08-07T19:35:33.172Z,99756.03
2022-08-07T19:38:15.116Z,99759.75
2022-08-07T19:40:50.571Z,99758.91
2022-08-07T19:43:43.612Z,99761.28
2022-08-07T19:46:16.061Z,99759.25
2022-08-07T19:48:53.788Z,99766.56
2022-08-07T19:51:51.376Z,99764.41
2022-08-07T19:54:31.145Z,99772.16
2022-08-07T19:58:02.673Z,99776.22
2022-08-07T19:59:58.578Z,99777.38
2022-08-07T20:02:33.132Z,99786.97
2022-08-07T20:05:07.621Z,99775.34
2022-08-07T20:07:47.962Z,99785.75
2022-08-07T20:10:35.058Z,99783.84
2022-08-07T20:13:26.880Z,99780.56
2022-08-07T20:15:57.922Z,99772.66
2022-08-07T20:18:32.894Z,99775.56
2022-08-07T20:21:21.103Z,99766.47
2022-08-07T20:24:22.377Z,99771.25
2022-08-07T20:26:54.450Z,99776.63
2022-08-07T20:29:48.671Z,99773.31
2022-08-07T20:32:22.678Z,99770.75
2022-08-07T20:35:00.372Z,99768.44
2022-08-07T20:37:57.747Z,99775.19
2022-08-07T20:40:32.436Z,99773.03
2022-08-07T20:43:14.576Z,99775.13
2022-08-07T20:46:26.563Z,99769.44
2022-08-07T20:48:39.640Z,99771.53
2022-08-07T20:51:29.272Z,99768.84
2022-08-07T20:54:08.488Z,99766.19
2022-08-07T20:56:39.541Z,99774.88
2022-08-07T21:00:05.616Z,99781.38
2022-08-07T21:02:01.037Z,99783.19
2022-08-07T21:04:31.216Z,99786.22
2022-08-07T21:07:03.881Z,99792.16
2022-08-07T21:09:53.309Z,99790.06
2022-08-07T21:12:30.781Z,99793.06
2022-08-07T21:15:03.196Z,99800.63
2022-08-07T21:18:03.076Z,99797.50
2022-08-07T21:20:29.420Z,99795.97
2022-08-07T21:22:59.169Z,99794.50
2022-08-07T21:26:03.008Z,99790.53
2022-08-07T21:28:48.654Z,99795.84
2022-08-07T21:31:49.360Z,99798.78
2022-08-07T21:34:48.992Z,99791.97
2022-08-07T21:37:25.829Z,99783.22
2022-08-07T21:40:07.906Z,99790.88
2022-08-07T21:43:01.150Z,99798.09
2022-08-07T21:46:25.034Z,99796.22
2022-08-07T21:49:14.496Z,99786.84
2022-08-07T21:52:39.844Z,99792.47
2022-08-07T21:55:30.898Z,99790.00
2022-08-07T21:58:00.422Z,99797.31
2022-08-07T22:00:31.528Z,99789.88
2022-08-07T22:03:18.737Z,99795.97
2022-08-07T22:06:30.854Z,99793.75
2022-08-07T22:09:00.214Z,99797.00
2022-08-07T22:11:30.819Z,99791.41
2022-08-07T22:14:23.710Z,99789.59
2022-08-07T22:17:04.318Z,99782.91
2022-08-07T22:19:49.776Z,99787.69
2022-08-07T22:22:29.387Z,99785.22
2022-08-07T22:25:04.668Z,99789.78
2022-08-07T22:28:07.351Z,99783.78
2022-08-07T22:31:05.109Z,99791.19
2022-08-07T22:33:56.925Z,99786.84
2022-08-07T22:36:52.664Z,99789.84
2022-08-07T22:39:53.057Z,99785.19
2022-08-07T22:42:26.045Z,99793.19
2022-08-07T22:45:03.765Z,99782.22
2022-08-07T22:48:13.612Z,99776.53
2022-08-07T22:51:11.247Z,99780.44
2022-08-07T22:54:16.201Z,99778.50
2022-08-07T22:57:20.376Z,99780.41
2022-08-07T23:00:14.250Z,99774.28
2022-08-07T23:02:51.652Z,99773.00
2022-08-07T23:06:07.306Z,99784.06
2022-08-07T23:08:58.638Z,99775.97
2022-08-07T23:12:32.538Z,99773.63
2022-08-07T23:16:04.293Z,99770.69
2022-08-07T23:18:43.486Z,99773.47
2022-08-07T23:21:40.185Z,99774.69
2022-08-07T23:24:27.984Z,99771.34
2022-08-07T23:27:01.206Z,99761.47
2022-08-07T23:30:36.305Z,99770.13
2022-08-07T23:34:18.823Z,99771.81
2022-08-07T23:35:48.103Z,99775.72
2022-08-07T23:38:36.880Z,99767.19
2022-08-07T23:41:19.002Z,99765.22
2022-08-07T23:44:05.496Z,99774.19
2022-08-07T23:47:01.264Z,99768.75
2022-08-07T23:50:03.200Z,99774.09
2022-08-07T23:53:01.232Z,99769.44
2022-08-07T23:56:03.189Z,99766.44
2022-08-07T23:58:49.917Z,99762.66
